Aliso Viejo, California
Current Conditions -  °F | °C
As of 2:53 PM on Thursday 18 Dec 2014 (Local Time) from KSNA Reporting Station
Broken Clouds Broken Clouds  
Wind Chill: 64°   Ceiling: 6500
Heat Index: 64°   Visibility: 10mi
Dew Point: 48°   Wind: 7mph
Humidity: 56%   Direction: 240°WSW
Pressure: 30.14"   Gusts: NA
Location:  33.57°N, 117.72°W
Report Text: KSNA 182253Z 24006KT 10SM FEW025 BKN065 18/09 A3014 RMK AO2 SLP206 T01780089
Loading
Personal Weather Stations






























Interactive Weather Map New forecast layout! Learn more

10-Day Weather Forecast

Advertisements
Track Severe Weather on mobile